sensor_id;sensor_type;location;lat;lon;timestamp;P1;durP1;ratioP1;P2;durP2;ratioP2
29500;SDS011;16450;50.288;10.966;2023-12-28T00:01:06;14.33;;;9.13;;
29500;SDS011;16450;50.288;10.966;2023-12-28T00:04:08;13.17;;;8.30;;
29500;SDS011;16450;50.288;10.966;2023-12-28T00:07:10;16.10;;;8.73;;
29500;SDS011;16450;50.288;10.966;2023-12-28T00:10:13;13.63;;;7.87;;
29500;SDS011;16450;50.288;10.966;2023-12-28T00:13:15;12.27;;;7.63;;
29500;SDS011;16450;50.288;10.966;2023-12-28T00:16:16;14.40;;;7.27;;
29500;SDS011;16450;50.288;10.966;2023-12-28T00:19:18;17.00;;;9.80;;
29500;SDS011;16450;50.288;10.966;2023-12-28T00:22:23;12.63;;;8.30;;
29500;SDS011;16450;50.288;10.966;2023-12-28T00:25:25;14.90;;;8.53;;
29500;SDS011;16450;50.288;10.966;2023-12-28T00:28:27;12.87;;;7.83;;
29500;SDS011;16450;50.288;10.966;2023-12-28T00:31:29;13.43;;;8.27;;
29500;SDS011;16450;50.288;10.966;2023-12-28T00:34:31;13.67;;;8.20;;
29500;SDS011;16450;50.288;10.966;2023-12-28T00:37:33;14.17;;;8.83;;
29500;SDS011;16450;50.288;10.966;2023-12-28T00:40:35;15.07;;;8.53;;
29500;SDS011;16450;50.288;10.966;2023-12-28T00:43:36;13.37;;;8.27;;
29500;SDS011;16450;50.288;10.966;2023-12-28T00:46:38;12.17;;;8.43;;
29500;SDS011;16450;50.288;10.966;2023-12-28T00:49:40;13.70;;;8.43;;
29500;SDS011;16450;50.288;10.966;2023-12-28T00:52:42;13.93;;;8.17;;
29500;SDS011;16450;50.288;10.966;2023-12-28T00:55:44;12.10;;;7.23;;
29500;SDS011;16450;50.288;10.966;2023-12-28T00:58:46;16.77;;;7.90;;
29500;SDS011;16450;50.288;10.966;2023-12-28T01:01:48;12.50;;;7.77;;
29500;SDS011;16450;50.288;10.966;2023-12-28T01:04:49;11.57;;;7.60;;
29500;SDS011;16450;50.288;10.966;2023-12-28T01:07:51;14.40;;;8.63;;
29500;SDS011;16450;50.288;10.966;2023-12-28T01:10:53;14.03;;;7.90;;
29500;SDS011;16450;50.288;10.966;2023-12-28T01:13:55;11.17;;;7.70;;
29500;SDS011;16450;50.288;10.966;2023-12-28T01:16:59;12.07;;;7.77;;
29500;SDS011;16450;50.288;10.966;2023-12-28T01:20:00;12.03;;;7.97;;
29500;SDS011;16450;50.288;10.966;2023-12-28T01:23:03;14.23;;;7.83;;
29500;SDS011;16450;50.288;10.966;2023-12-28T01:26:05;11.13;;;7.57;;
29500;SDS011;16450;50.288;10.966;2023-12-28T01:29:07;12.57;;;7.73;;
29500;SDS011;16450;50.288;10.966;2023-12-28T01:32:08;11.67;;;7.03;;
29500;SDS011;16450;50.288;10.966;2023-12-28T01:35:10;11.67;;;7.43;;
29500;SDS011;16450;50.288;10.966;2023-12-28T01:38:12;11.20;;;6.90;;
29500;SDS011;16450;50.288;10.966;2023-12-28T01:41:14;14.27;;;7.60;;
29500;SDS011;16450;50.288;10.966;2023-12-28T01:44:16;13.20;;;8.23;;
29500;SDS011;16450;50.288;10.966;2023-12-28T01:47:18;11.97;;;6.90;;
29500;SDS011;16450;50.288;10.966;2023-12-28T01:50:20;10.10;;;7.37;;
29500;SDS011;16450;50.288;10.966;2023-12-28T01:53:24;11.23;;;7.33;;
29500;SDS011;16450;50.288;10.966;2023-12-28T01:56:26;12.50;;;7.50;;
29500;SDS011;16450;50.288;10.966;2023-12-28T01:59:28;12.07;;;7.73;;
29500;SDS011;16450;50.288;10.966;2023-12-28T02:02:31;15.23;;;8.23;;
29500;SDS011;16450;50.288;10.966;2023-12-28T02:05:33;12.90;;;7.73;;
29500;SDS011;16450;50.288;10.966;2023-12-28T02:08:36;11.03;;;7.37;;
29500;SDS011;16450;50.288;10.966;2023-12-28T02:11:38;11.63;;;7.50;;
29500;SDS011;16450;50.288;10.966;2023-12-28T02:14:40;13.87;;;7.60;;
29500;SDS011;16450;50.288;10.966;2023-12-28T02:17:43;11.03;;;7.57;;
29500;SDS011;16450;50.288;10.966;2023-12-28T02:21:04;13.47;;;7.97;;
29500;SDS011;16450;50.288;10.966;2023-12-28T02:24:07;11.17;;;7.70;;
29500;SDS011;16450;50.288;10.966;2023-12-28T02:27:09;11.13;;;7.07;;
29500;SDS011;16450;50.288;10.966;2023-12-28T02:30:11;11.77;;;6.83;;
29500;SDS011;16450;50.288;10.966;2023-12-28T02:33:34;10.97;;;7.03;;
29500;SDS011;16450;50.288;10.966;2023-12-28T02:36:41;13.33;;;7.10;;
29500;SDS011;16450;50.288;10.966;2023-12-28T02:39:46;12.77;;;7.10;;
29500;SDS011;16450;50.288;10.966;2023-12-28T02:42:52;11.03;;;6.70;;
29500;SDS011;16450;50.288;10.966;2023-12-28T02:45:54;13.03;;;7.13;;
29500;SDS011;16450;50.288;10.966;2023-12-28T02:48:57;11.33;;;7.23;;
29500;SDS011;16450;50.288;10.966;2023-12-28T02:52:00;12.83;;;7.53;;
29500;SDS011;16450;50.288;10.966;2023-12-28T02:55:02;11.30;;;6.60;;
29500;SDS011;16450;50.288;10.966;2023-12-28T02:58:04;11.23;;;6.90;;
29500;SDS011;16450;50.288;10.966;2023-12-28T03:01:07;12.07;;;7.17;;
29500;SDS011;16450;50.288;10.966;2023-12-28T03:04:09;11.53;;;6.97;;
29500;SDS011;16450;50.288;10.966;2023-12-28T03:07:11;8.93;;;6.10;;
29500;SDS011;16450;50.288;10.966;2023-12-28T03:10:13;9.93;;;6.23;;
29500;SDS011;16450;50.288;10.966;2023-12-28T03:13:15;9.77;;;6.40;;
29500;SDS011;16450;50.288;10.966;2023-12-28T03:16:17;10.60;;;7.03;;
29500;SDS011;16450;50.288;10.966;2023-12-28T03:19:20;10.93;;;6.90;;
29500;SDS011;16450;50.288;10.966;2023-12-28T03:22:22;10.77;;;7.10;;
29500;SDS011;16450;50.288;10.966;2023-12-28T03:25:24;10.73;;;6.37;;
29500;SDS011;16450;50.288;10.966;2023-12-28T03:28:25;13.07;;;6.73;;
29500;SDS011;16450;50.288;10.966;2023-12-28T03:31:27;10.80;;;6.43;;
29500;SDS011;16450;50.288;10.966;2023-12-28T03:34:30;11.03;;;6.53;;
29500;SDS011;16450;50.288;10.966;2023-12-28T03:37:32;9.60;;;6.50;;
29500;SDS011;16450;50.288;10.966;2023-12-28T03:40:34;9.17;;;5.53;;
29500;SDS011;16450;50.288;10.966;2023-12-28T03:43:36;10.33;;;6.77;;
29500;SDS011;16450;50.288;10.966;2023-12-28T03:46:37;10.73;;;6.50;;
29500;SDS011;16450;50.288;10.966;2023-12-28T03:49:39;11.93;;;6.50;;
29500;SDS011;16450;50.288;10.966;2023-12-28T03:52:42;11.03;;;6.37;;
29500;SDS011;16450;50.288;10.966;2023-12-28T03:55:43;9.00;;;6.03;;
29500;SDS011;16450;50.288;10.966;2023-12-28T03:58:45;9.67;;;6.00;;
29500;SDS011;16450;50.288;10.966;2023-12-28T04:01:47;11.33;;;5.57;;
29500;SDS011;16450;50.288;10.966;2023-12-28T04:04:49;11.90;;;5.90;;
29500;SDS011;16450;50.288;10.966;2023-12-28T04:07:51;9.67;;;5.67;;
29500;SDS011;16450;50.288;10.966;2023-12-28T04:10:53;9.50;;;6.37;;
29500;SDS011;16450;50.288;10.966;2023-12-28T04:13:55;10.00;;;6.10;;
29500;SDS011;16450;50.288;10.966;2023-12-28T04:16:57;11.77;;;6.37;;
29500;SDS011;16450;50.288;10.966;2023-12-28T04:19:59;10.33;;;6.23;;
29500;SDS011;16450;50.288;10.966;2023-12-28T04:23:01;11.13;;;6.17;;
29500;SDS011;16450;50.288;10.966;2023-12-28T04:26:03;12.13;;;6.50;;
29500;SDS011;16450;50.288;10.966;2023-12-28T04:29:05;10.33;;;5.53;;
29500;SDS011;16450;50.288;10.966;2023-12-28T04:32:08;10.07;;;5.13;;
29500;SDS011;16450;50.288;10.966;2023-12-28T04:35:10;11.90;;;5.70;;
29500;SDS011;16450;50.288;10.966;2023-12-28T04:38:12;11.17;;;5.80;;
29500;SDS011;16450;50.288;10.966;2023-12-28T04:41:14;8.87;;;5.40;;
29500;SDS011;16450;50.288;10.966;2023-12-28T04:44:16;9.43;;;5.90;;
29500;SDS011;16450;50.288;10.966;2023-12-28T04:47:18;7.97;;;5.00;;
29500;SDS011;16450;50.288;10.966;2023-12-28T04:50:20;9.20;;;5.53;;
29500;SDS011;16450;50.288;10.966;2023-12-28T04:53:22;10.07;;;5.53;;
29500;SDS011;16450;50.288;10.966;2023-12-28T04:56:23;8.83;;;5.47;;
29500;SDS011;16450;50.288;10.966;2023-12-28T04:59:25;10.60;;;5.23;;
29500;SDS011;16450;50.288;10.966;2023-12-28T05:02:27;8.70;;;5.07;;
29500;SDS011;16450;50.288;10.966;2023-12-28T05:05:29;8.80;;;5.43;;
29500;SDS011;16450;50.288;10.966;2023-12-28T05:08:31;11.83;;;6.17;;
29500;SDS011;16450;50.288;10.966;2023-12-28T05:11:33;8.93;;;5.63;;
29500;SDS011;16450;50.288;10.966;2023-12-28T05:14:35;9.47;;;5.83;;
29500;SDS011;16450;50.288;10.966;2023-12-28T05:17:36;9.27;;;5.67;;
29500;SDS011;16450;50.288;10.966;2023-12-28T05:20:39;10.33;;;5.33;;
29500;SDS011;16450;50.288;10.966;2023-12-28T05:23:41;9.00;;;5.30;;
29500;SDS011;16450;50.288;10.966;2023-12-28T05:26:42;9.57;;;5.00;;
29500;SDS011;16450;50.288;10.966;2023-12-28T05:29:44;8.23;;;5.07;;
29500;SDS011;16450;50.288;10.966;2023-12-28T05:32:46;8.67;;;5.20;;
29500;SDS011;16450;50.288;10.966;2023-12-28T05:35:48;6.43;;;4.43;;
29500;SDS011;16450;50.288;10.966;2023-12-28T05:38:50;8.43;;;5.20;;
29500;SDS011;16450;50.288;10.966;2023-12-28T05:41:52;8.70;;;5.07;;
29500;SDS011;16450;50.288;10.966;2023-12-28T05:44:54;8.80;;;5.10;;
29500;SDS011;16450;50.288;10.966;2023-12-28T05:47:55;10.23;;;5.43;;
29500;SDS011;16450;50.288;10.966;2023-12-28T05:50:58;7.60;;;5.07;;
29500;SDS011;16450;50.288;10.966;2023-12-28T05:54:00;8.47;;;5.37;;
29500;SDS011;16450;50.288;10.966;2023-12-28T05:57:02;7.83;;;5.17;;
29500;SDS011;16450;50.288;10.966;2023-12-28T06:00:04;9.40;;;4.87;;
29500;SDS011;16450;50.288;10.966;2023-12-28T06:03:08;10.70;;;6.00;;
29500;SDS011;16450;50.288;10.966;2023-12-28T06:06:09;10.67;;;6.53;;
29500;SDS011;16450;50.288;10.966;2023-12-28T06:09:11;9.83;;;6.00;;
29500;SDS011;16450;50.288;10.966;2023-12-28T06:12:13;8.87;;;5.13;;
29500;SDS011;16450;50.288;10.966;2023-12-28T06:15:16;8.50;;;5.17;;
29500;SDS011;16450;50.288;10.966;2023-12-28T06:18:18;7.50;;;4.70;;
29500;SDS011;16450;50.288;10.966;2023-12-28T06:21:20;8.40;;;4.63;;
29500;SDS011;16450;50.288;10.966;2023-12-28T06:24:22;8.57;;;5.20;;
29500;SDS011;16450;50.288;10.966;2023-12-28T06:27:24;7.93;;;5.13;;
29500;SDS011;16450;50.288;10.966;2023-12-28T06:30:26;9.00;;;5.13;;
29500;SDS011;16450;50.288;10.966;2023-12-28T06:33:28;9.37;;;6.00;;
29500;SDS011;16450;50.288;10.966;2023-12-28T06:36:30;9.23;;;5.83;;
29500;SDS011;16450;50.288;10.966;2023-12-28T06:39:33;8.73;;;5.80;;
29500;SDS011;16450;50.288;10.966;2023-12-28T06:42:35;9.80;;;6.53;;
29500;SDS011;16450;50.288;10.966;2023-12-28T06:45:36;8.77;;;5.93;;
29500;SDS011;16450;50.288;10.966;2023-12-28T06:48:38;9.93;;;6.87;;
29500;SDS011;16450;50.288;10.966;2023-12-28T06:51:42;12.10;;;7.07;;
29500;SDS011;16450;50.288;10.966;2023-12-28T06:54:46;10.00;;;7.13;;
29500;SDS011;16450;50.288;10.966;2023-12-28T06:57:51;15.27;;;10.17;;
29500;SDS011;16450;50.288;10.966;2023-12-28T07:00:53;17.73;;;10.63;;
29500;SDS011;16450;50.288;10.966;2023-12-28T07:03:58;16.73;;;8.80;;
29500;SDS011;16450;50.288;10.966;2023-12-28T07:07:01;11.63;;;7.50;;
29500;SDS011;16450;50.288;10.966;2023-12-28T07:10:03;14.40;;;8.23;;
29500;SDS011;16450;50.288;10.966;2023-12-28T07:13:05;11.33;;;7.37;;
29500;SDS011;16450;50.288;10.966;2023-12-28T07:16:07;11.13;;;6.40;;
29500;SDS011;16450;50.288;10.966;2023-12-28T07:19:09;9.90;;;5.97;;
29500;SDS011;16450;50.288;10.966;2023-12-28T07:22:11;11.27;;;6.40;;
29500;SDS011;16450;50.288;10.966;2023-12-28T07:25:14;9.57;;;5.93;;
29500;SDS011;16450;50.288;10.966;2023-12-28T07:28:16;10.80;;;5.57;;
29500;SDS011;16450;50.288;10.966;2023-12-28T07:31:24;9.17;;;5.57;;
29500;SDS011;16450;50.288;10.966;2023-12-28T07:34:27;8.57;;;5.17;;
29500;SDS011;16450;50.288;10.966;2023-12-28T07:37:29;9.57;;;4.93;;
29500;SDS011;16450;50.288;10.966;2023-12-28T07:40:31;8.23;;;5.00;;
29500;SDS011;16450;50.288;10.966;2023-12-28T07:43:33;10.80;;;6.43;;
29500;SDS011;16450;50.288;10.966;2023-12-28T07:46:35;11.53;;;6.67;;
29500;SDS011;16450;50.288;10.966;2023-12-28T07:49:37;15.10;;;9.60;;
29500;SDS011;16450;50.288;10.966;2023-12-28T07:52:39;14.07;;;9.20;;
29500;SDS011;16450;50.288;10.966;2023-12-28T07:55:41;14.30;;;8.70;;
29500;SDS011;16450;50.288;10.966;2023-12-28T07:58:42;17.93;;;10.70;;
29500;SDS011;16450;50.288;10.966;2023-12-28T08:01:44;15.77;;;10.23;;
29500;SDS011;16450;50.288;10.966;2023-12-28T08:04:47;18.77;;;10.70;;
29500;SDS011;16450;50.288;10.966;2023-12-28T08:07:50;17.80;;;10.90;;
29500;SDS011;16450;50.288;10.966;2023-12-28T08:10:52;24.50;;;14.03;;
29500;SDS011;16450;50.288;10.966;2023-12-28T08:13:54;24.10;;;14.30;;
29500;SDS011;16450;50.288;10.966;2023-12-28T08:16:56;20.43;;;11.57;;
29500;SDS011;16450;50.288;10.966;2023-12-28T08:19:57;18.80;;;10.77;;
29500;SDS011;16450;50.288;10.966;2023-12-28T08:23:00;18.77;;;9.57;;
29500;SDS011;16450;50.288;10.966;2023-12-28T08:26:17;14.90;;;8.77;;
29500;SDS011;16450;50.288;10.966;2023-12-28T08:29:19;12.47;;;6.30;;
29500;SDS011;16450;50.288;10.966;2023-12-28T08:32:21;12.07;;;6.70;;
29500;SDS011;16450;50.288;10.966;2023-12-28T08:35:23;9.73;;;5.13;;
29500;SDS011;16450;50.288;10.966;2023-12-28T08:38:25;8.43;;;4.80;;
29500;SDS011;16450;50.288;10.966;2023-12-28T08:41:26;7.07;;;4.27;;
29500;SDS011;16450;50.288;10.966;2023-12-28T08:44:28;7.37;;;4.17;;
29500;SDS011;16450;50.288;10.966;2023-12-28T08:47:30;6.67;;;3.93;;
29500;SDS011;16450;50.288;10.966;2023-12-28T08:50:33;7.63;;;3.90;;
29500;SDS011;16450;50.288;10.966;2023-12-28T08:53:35;6.63;;;4.17;;
29500;SDS011;16450;50.288;10.966;2023-12-28T08:56:36;8.50;;;4.60;;
29500;SDS011;16450;50.288;10.966;2023-12-28T08:59:39;7.73;;;3.90;;
29500;SDS011;16450;50.288;10.966;2023-12-28T09:02:42;5.27;;;3.60;;
29500;SDS011;16450;50.288;10.966;2023-12-28T09:05:44;6.87;;;4.17;;
29500;SDS011;16450;50.288;10.966;2023-12-28T09:08:47;6.33;;;3.70;;
29500;SDS011;16450;50.288;10.966;2023-12-28T09:11:50;5.60;;;3.80;;
29500;SDS011;16450;50.288;10.966;2023-12-28T09:14:52;5.83;;;3.60;;
29500;SDS011;16450;50.288;10.966;2023-12-28T09:17:55;7.27;;;3.97;;
29500;SDS011;16450;50.288;10.966;2023-12-28T09:20:58;6.47;;;3.30;;
29500;SDS011;16450;50.288;10.966;2023-12-28T09:24:00;5.80;;;3.37;;
29500;SDS011;16450;50.288;10.966;2023-12-28T09:27:02;5.93;;;3.40;;
29500;SDS011;16450;50.288;10.966;2023-12-28T09:30:04;5.10;;;3.10;;
29500;SDS011;16450;50.288;10.966;2023-12-28T09:33:06;9.30;;;3.57;;
29500;SDS011;16450;50.288;10.966;2023-12-28T09:36:09;5.83;;;3.90;;
29500;SDS011;16450;50.288;10.966;2023-12-28T09:39:14;6.67;;;3.17;;
29500;SDS011;16450;50.288;10.966;2023-12-28T09:42:25;6.33;;;3.37;;
29500;SDS011;16450;50.288;10.966;2023-12-28T09:45:30;7.80;;;3.60;;
29500;SDS011;16450;50.288;10.966;2023-12-28T09:48:32;7.33;;;3.53;;
29500;SDS011;16450;50.288;10.966;2023-12-28T09:51:34;4.93;;;3.23;;
29500;SDS011;16450;50.288;10.966;2023-12-28T09:54:36;5.40;;;3.30;;
29500;SDS011;16450;50.288;10.966;2023-12-28T09:57:38;4.27;;;2.87;;
29500;SDS011;16450;50.288;10.966;2023-12-28T10:00:44;5.23;;;2.90;;
29500;SDS011;16450;50.288;10.966;2023-12-28T10:03:47;4.57;;;2.97;;
29500;SDS011;16450;50.288;10.966;2023-12-28T10:06:49;6.00;;;2.80;;
29500;SDS011;16450;50.288;10.966;2023-12-28T10:09:52;3.93;;;2.90;;
29500;SDS011;16450;50.288;10.966;2023-12-28T10:12:54;4.60;;;2.60;;
29500;SDS011;16450;50.288;10.966;2023-12-28T10:15:56;4.20;;;2.90;;
29500;SDS011;16450;50.288;10.966;2023-12-28T10:18:59;5.70;;;2.63;;
29500;SDS011;16450;50.288;10.966;2023-12-28T10:22:01;4.40;;;2.50;;
29500;SDS011;16450;50.288;10.966;2023-12-28T10:25:03;4.67;;;2.77;;
29500;SDS011;16450;50.288;10.966;2023-12-28T10:28:06;3.03;;;2.27;;
29500;SDS011;16450;50.288;10.966;2023-12-28T10:31:08;8.20;;;2.90;;
29500;SDS011;16450;50.288;10.966;2023-12-28T10:34:10;3.70;;;2.60;;
29500;SDS011;16450;50.288;10.966;2023-12-28T10:37:13;4.93;;;2.40;;
29500;SDS011;16450;50.288;10.966;2023-12-28T10:40:18;4.73;;;2.33;;
29500;SDS011;16450;50.288;10.966;2023-12-28T10:43:22;4.40;;;2.10;;
29500;SDS011;16450;50.288;10.966;2023-12-28T10:46:26;4.27;;;1.97;;
29500;SDS011;16450;50.288;10.966;2023-12-28T10:49:31;3.03;;;1.87;;
29500;SDS011;16450;50.288;10.966;2023-12-28T10:52:37;4.50;;;2.17;;
29500;SDS011;16450;50.288;10.966;2023-12-28T10:58:58;2.40;;;1.83;;
29500;SDS011;16450;50.288;10.966;2023-12-28T11:02:14;4.93;;;2.40;;
29500;SDS011;16450;50.288;10.966;2023-12-28T11:05:26;4.90;;;2.10;;
29500;SDS011;16450;50.288;10.966;2023-12-28T11:08:29;3.30;;;2.00;;
29500;SDS011;16450;50.288;10.966;2023-12-28T11:11:33;3.10;;;2.20;;
29500;SDS011;16450;50.288;10.966;2023-12-28T11:14:40;3.27;;;2.07;;
29500;SDS011;16450;50.288;10.966;2023-12-28T11:17:43;4.97;;;1.87;;
29500;SDS011;16450;50.288;10.966;2023-12-28T11:20:45;2.77;;;1.90;;
29500;SDS011;16450;50.288;10.966;2023-12-28T11:23:47;2.67;;;2.00;;
29500;SDS011;16450;50.288;10.966;2023-12-28T11:26:53;2.57;;;1.80;;
29500;SDS011;16450;50.288;10.966;2023-12-28T11:29:58;2.97;;;1.70;;
29500;SDS011;16450;50.288;10.966;2023-12-28T11:33:00;3.50;;;1.90;;
29500;SDS011;16450;50.288;10.966;2023-12-28T11:36:08;3.57;;;1.90;;
29500;SDS011;16450;50.288;10.966;2023-12-28T11:39:10;3.93;;;2.20;;
29500;SDS011;16450;50.288;10.966;2023-12-28T11:42:12;2.37;;;2.03;;
29500;SDS011;16450;50.288;10.966;2023-12-28T11:45:21;3.37;;;2.10;;
29500;SDS011;16450;50.288;10.966;2023-12-28T11:48:24;3.97;;;2.00;;
29500;SDS011;16450;50.288;10.966;2023-12-28T11:51:30;4.17;;;2.03;;
29500;SDS011;16450;50.288;10.966;2023-12-28T11:54:33;5.70;;;2.10;;
29500;SDS011;16450;50.288;10.966;2023-12-28T11:57:36;3.90;;;2.03;;
29500;SDS011;16450;50.288;10.966;2023-12-28T12:00:39;2.70;;;1.90;;
29500;SDS011;16450;50.288;10.966;2023-12-28T12:03:41;2.73;;;2.03;;
29500;SDS011;16450;50.288;10.966;2023-12-28T12:06:47;4.50;;;2.20;;
29500;SDS011;16450;50.288;10.966;2023-12-28T12:09:49;2.10;;;1.90;;
29500;SDS011;16450;50.288;10.966;2023-12-28T12:12:57;2.67;;;1.93;;
29500;SDS011;16450;50.288;10.966;2023-12-28T12:15:59;4.17;;;1.97;;
29500;SDS011;16450;50.288;10.966;2023-12-28T12:19:07;3.10;;;2.03;;
29500;SDS011;16450;50.288;10.966;2023-12-28T12:22:09;3.20;;;1.70;;
29500;SDS011;16450;50.288;10.966;2023-12-28T12:25:11;1.97;;;1.73;;
29500;SDS011;16450;50.288;10.966;2023-12-28T12:28:13;4.70;;;1.93;;
29500;SDS011;16450;50.288;10.966;2023-12-28T12:31:16;5.07;;;2.07;;
29500;SDS011;16450;50.288;10.966;2023-12-28T12:34:18;3.10;;;2.00;;
29500;SDS011;16450;50.288;10.966;2023-12-28T12:37:20;2.10;;;1.70;;
29500;SDS011;16450;50.288;10.966;2023-12-28T12:40:22;2.17;;;1.83;;
29500;SDS011;16450;50.288;10.966;2023-12-28T12:43:26;4.30;;;2.10;;
29500;SDS011;16450;50.288;10.966;2023-12-28T12:46:28;3.50;;;2.10;;
29500;SDS011;16450;50.288;10.966;2023-12-28T12:49:31;5.67;;;2.10;;
29500;SDS011;16450;50.288;10.966;2023-12-28T12:52:33;4.17;;;2.07;;
29500;SDS011;16450;50.288;10.966;2023-12-28T12:55:38;2.77;;;2.00;;
29500;SDS011;16450;50.288;10.966;2023-12-28T12:58:40;3.20;;;1.87;;
29500;SDS011;16450;50.288;10.966;2023-12-28T13:01:45;1.83;;;1.67;;
29500;SDS011;16450;50.288;10.966;2023-12-28T13:04:54;4.80;;;2.00;;
29500;SDS011;16450;50.288;10.966;2023-12-28T13:07:57;4.17;;;1.90;;
29500;SDS011;16450;50.288;10.966;2023-12-28T13:10:59;2.63;;;1.90;;
29500;SDS011;16450;50.288;10.966;2023-12-28T13:14:01;5.93;;;2.20;;
29500;SDS011;16450;50.288;10.966;2023-12-28T13:17:03;3.43;;;1.90;;
29500;SDS011;16450;50.288;10.966;2023-12-28T13:20:05;4.60;;;2.23;;
29500;SDS011;16450;50.288;10.966;2023-12-28T13:23:07;3.57;;;2.63;;
29500;SDS011;16450;50.288;10.966;2023-12-28T13:26:10;4.77;;;2.43;;
29500;SDS011;16450;50.288;10.966;2023-12-28T13:29:12;2.77;;;2.03;;
29500;SDS011;16450;50.288;10.966;2023-12-28T13:32:13;5.40;;;2.17;;
29500;SDS011;16450;50.288;10.966;2023-12-28T13:35:16;3.17;;;1.93;;
29500;SDS011;16450;50.288;10.966;2023-12-28T13:38:19;5.33;;;2.17;;
29500;SDS011;16450;50.288;10.966;2023-12-28T13:41:22;5.37;;;2.70;;
29500;SDS011;16450;50.288;10.966;2023-12-28T13:44:24;5.43;;;2.50;;
29500;SDS011;16450;50.288;10.966;2023-12-28T13:47:26;4.80;;;2.70;;
29500;SDS011;16450;50.288;10.966;2023-12-28T13:50:28;3.43;;;2.50;;
29500;SDS011;16450;50.288;10.966;2023-12-28T13:53:30;5.30;;;2.40;;
29500;SDS011;16450;50.288;10.966;2023-12-28T13:56:32;5.93;;;2.33;;
29500;SDS011;16450;50.288;10.966;2023-12-28T13:59:34;2.53;;;2.00;;
29500;SDS011;16450;50.288;10.966;2023-12-28T14:02:39;3.27;;;2.03;;
29500;SDS011;16450;50.288;10.966;2023-12-28T14:05:41;2.93;;;2.00;;
29500;SDS011;16450;50.288;10.966;2023-12-28T14:08:44;4.27;;;2.10;;
29500;SDS011;16450;50.288;10.966;2023-12-28T14:11:47;8.20;;;2.60;;
29500;SDS011;16450;50.288;10.966;2023-12-28T14:14:49;6.20;;;2.40;;
29500;SDS011;16450;50.288;10.966;2023-12-28T14:17:50;4.50;;;2.40;;
29500;SDS011;16450;50.288;10.966;2023-12-28T14:20:53;2.53;;;2.10;;
29500;SDS011;16450;50.288;10.966;2023-12-28T14:23:55;3.77;;;2.43;;
29500;SDS011;16450;50.288;10.966;2023-12-28T14:26:57;4.50;;;2.73;;
29500;SDS011;16450;50.288;10.966;2023-12-28T14:29:59;6.80;;;2.77;;
29500;SDS011;16450;50.288;10.966;2023-12-28T14:33:05;7.03;;;3.07;;
29500;SDS011;16450;50.288;10.966;2023-12-28T14:39:31;6.53;;;3.63;;
29500;SDS011;16450;50.288;10.966;2023-12-28T14:42:32;8.17;;;3.83;;
29500;SDS011;16450;50.288;10.966;2023-12-28T14:45:35;13.80;;;6.00;;
29500;SDS011;16450;50.288;10.966;2023-12-28T14:48:37;15.07;;;5.50;;
29500;SDS011;16450;50.288;10.966;2023-12-28T14:51:39;10.57;;;5.00;;
29500;SDS011;16450;50.288;10.966;2023-12-28T14:54:41;12.50;;;5.50;;
29500;SDS011;16450;50.288;10.966;2023-12-28T14:57:44;7.33;;;3.50;;
29500;SDS011;16450;50.288;10.966;2023-12-28T15:00:46;5.47;;;3.30;;
29500;SDS011;16450;50.288;10.966;2023-12-28T15:03:48;5.07;;;3.00;;
29500;SDS011;16450;50.288;10.966;2023-12-28T15:06:50;5.07;;;3.27;;
29500;SDS011;16450;50.288;10.966;2023-12-28T15:09:52;7.43;;;3.80;;
29500;SDS011;16450;50.288;10.966;2023-12-28T15:12:57;5.87;;;3.73;;
29500;SDS011;16450;50.288;10.966;2023-12-28T15:15:59;6.77;;;3.67;;
29500;SDS011;16450;50.288;10.966;2023-12-28T15:19:02;6.23;;;3.37;;
29500;SDS011;16450;50.288;10.966;2023-12-28T15:22:04;6.07;;;3.80;;
29500;SDS011;16450;50.288;10.966;2023-12-28T15:25:07;6.90;;;3.70;;
29500;SDS011;16450;50.288;10.966;2023-12-28T15:28:09;6.53;;;3.73;;
29500;SDS011;16450;50.288;10.966;2023-12-28T15:31:11;6.10;;;3.83;;
29500;SDS011;16450;50.288;10.966;2023-12-28T15:34:15;6.37;;;3.93;;
29500;SDS011;16450;50.288;10.966;2023-12-28T15:37:17;7.87;;;4.27;;
29500;SDS011;16450;50.288;10.966;2023-12-28T15:40:19;7.00;;;4.30;;
29500;SDS011;16450;50.288;10.966;2023-12-28T15:43:21;7.60;;;4.40;;
29500;SDS011;16450;50.288;10.966;2023-12-28T15:46:23;10.07;;;5.23;;
29500;SDS011;16450;50.288;10.966;2023-12-28T15:49:25;6.40;;;3.97;;
29500;SDS011;16450;50.288;10.966;2023-12-28T15:52:27;5.97;;;4.23;;
29500;SDS011;16450;50.288;10.966;2023-12-28T15:55:29;5.70;;;3.87;;
29500;SDS011;16450;50.288;10.966;2023-12-28T15:58:31;8.53;;;4.10;;
29500;SDS011;16450;50.288;10.966;2023-12-28T16:01:34;4.43;;;3.43;;
29500;SDS011;16450;50.288;10.966;2023-12-28T16:04:36;6.00;;;3.83;;
29500;SDS011;16450;50.288;10.966;2023-12-28T16:07:39;6.37;;;3.70;;
29500;SDS011;16450;50.288;10.966;2023-12-28T16:10:41;6.13;;;3.60;;
29500;SDS011;16450;50.288;10.966;2023-12-28T16:13:42;5.07;;;3.70;;
29500;SDS011;16450;50.288;10.966;2023-12-28T16:16:45;7.30;;;4.40;;
29500;SDS011;16450;50.288;10.966;2023-12-28T16:19:47;7.07;;;4.10;;
29500;SDS011;16450;50.288;10.966;2023-12-28T16:22:49;6.47;;;3.40;;
29500;SDS011;16450;50.288;10.966;2023-12-28T16:25:52;6.90;;;3.20;;
29500;SDS011;16450;50.288;10.966;2023-12-28T16:28:54;8.07;;;4.27;;
29500;SDS011;16450;50.288;10.966;2023-12-28T16:31:56;10.83;;;5.10;;
29500;SDS011;16450;50.288;10.966;2023-12-28T16:35:02;9.13;;;4.90;;
29500;SDS011;16450;50.288;10.966;2023-12-28T16:38:04;15.10;;;6.33;;
29500;SDS011;16450;50.288;10.966;2023-12-28T16:41:06;11.33;;;6.20;;
29500;SDS011;16450;50.288;10.966;2023-12-28T16:44:08;8.63;;;5.00;;
29500;SDS011;16450;50.288;10.966;2023-12-28T16:47:10;8.40;;;3.97;;
29500;SDS011;16450;50.288;10.966;2023-12-28T16:50:13;5.87;;;3.67;;
29500;SDS011;16450;50.288;10.966;2023-12-28T16:53:15;6.70;;;3.73;;
29500;SDS011;16450;50.288;10.966;2023-12-28T16:56:17;8.87;;;4.40;;
29500;SDS011;16450;50.288;10.966;2023-12-28T16:59:19;5.83;;;3.63;;
29500;SDS011;16450;50.288;10.966;2023-12-28T17:02:20;8.83;;;4.43;;
29500;SDS011;16450;50.288;10.966;2023-12-28T17:05:25;9.80;;;4.90;;
29500;SDS011;16450;50.288;10.966;2023-12-28T17:08:28;6.70;;;3.93;;
29500;SDS011;16450;50.288;10.966;2023-12-28T17:11:30;7.30;;;4.27;;
29500;SDS011;16450;50.288;10.966;2023-12-28T17:14:32;8.93;;;4.40;;
29500;SDS011;16450;50.288;10.966;2023-12-28T17:17:35;7.07;;;4.23;;
29500;SDS011;16450;50.288;10.966;2023-12-28T17:20:38;8.40;;;4.33;;
29500;SDS011;16450;50.288;10.966;2023-12-28T17:23:41;7.97;;;4.00;;
29500;SDS011;16450;50.288;10.966;2023-12-28T17:26:49;6.07;;;3.57;;
29500;SDS011;16450;50.288;10.966;2023-12-28T17:29:58;4.17;;;2.97;;
29500;SDS011;16450;50.288;10.966;2023-12-28T17:33:04;6.23;;;4.33;;
29500;SDS011;16450;50.288;10.966;2023-12-28T17:36:06;13.37;;;9.10;;
29500;SDS011;16450;50.288;10.966;2023-12-28T17:39:09;5.37;;;3.57;;
29500;SDS011;16450;50.288;10.966;2023-12-28T17:42:13;3.57;;;2.90;;
29500;SDS011;16450;50.288;10.966;2023-12-28T17:45:19;4.00;;;2.50;;
29500;SDS011;16450;50.288;10.966;2023-12-28T17:48:32;2.80;;;2.50;;
29500;SDS011;16450;50.288;10.966;2023-12-28T17:51:38;2.73;;;2.07;;
29500;SDS011;16450;50.288;10.966;2023-12-28T17:54:41;3.40;;;2.53;;
29500;SDS011;16450;50.288;10.966;2023-12-28T17:57:42;2.67;;;2.40;;
29500;SDS011;16450;50.288;10.966;2023-12-28T18:00:44;4.23;;;2.33;;
29500;SDS011;16450;50.288;10.966;2023-12-28T18:03:46;2.50;;;2.03;;